Time;durP1;ratioP1;P1;durP2;ratioP2;P2;SDS_P1;SDS_P2;PMS_P1;PMS_P2;Temp;Humidity;BMP_temperature;BMP_pressure;BME280_temperature;BME280_humidity;BME280_pressure;Samples;Min_cycle;Max_cycle;Signal;HPM_P1;HPM_P2
2023/07/12 00:00:28;;;;;;;5.30;1.95;;;;;;;17.60;100.00;95907.53;1042652;28;20051;-74
2023/07/12 00:01:00;;;;;;;5.10;1.83;;;;;;;17.59;100.00;95908.63;1036838;28;20029;-74
2023/07/12 00:01:31;;;;;;;4.75;2.10;;;;;;;17.60;100.00;95917.34;1036694;28;20032;-74
2023/07/12 00:02:01;;;;;;;5.22;2.17;;;;;;;17.58;100.00;95920.31;1038902;28;20597;-73
2023/07/12 00:02:31;;;;;;;2.28;1.73;;;;;;;17.57;100.00;95917.97;1039448;28;20495;-74
2023/07/12 00:03:02;;;;;;;6.63;2.38;;;;;;;17.51;100.00;95914.66;1042951;28;20107;-74
2023/07/12 00:03:32;;;;;;;4.55;2.60;;;;;;;17.54;100.00;95921.22;1039070;28;20036;-74
2023/07/12 00:04:03;;;;;;;5.45;2.15;;;;;;;17.53;100.00;95923.09;1034782;28;20030;-72
2023/07/12 00:04:34;;;;;;;4.50;2.05;;;;;;;17.56;100.00;95927.78;1036127;28;20060;-75
2023/07/12 00:05:04;;;;;;;5.32;2.72;;;;;;;17.57;100.00;95928.56;1039014;28;20378;-75
2023/07/12 00:05:35;;;;;;;6.32;2.47;;;;;;;17.54;100.00;95919.38;1039258;28;20023;-74
2023/07/12 00:06:17;;;;;;;4.65;2.17;;;;;;;17.60;100.00;95928.75;1031184;28;20030;-74
2023/07/12 00:06:47;;;;;;;3.95;2.13;;;;;;;17.57;100.00;95923.25;1039198;28;20036;-74
2023/07/12 00:07:21;;;;;;;7.40;2.50;;;;;;;17.56;100.00;95927.00;1039126;28;20519;-74
2023/07/12 00:07:54;;;;;;;4.00;2.55;;;;;;;17.55;100.00;95931.53;1043157;28;20079;-74
2023/07/12 00:08:26;;;;;;;4.65;2.28;;;;;;;17.54;100.00;95935.28;1034821;28;20029;-74
2023/07/12 00:08:57;;;;;;;5.35;2.25;;;;;;;17.54;100.00;95931.81;1030981;28;20159;-74
2023/07/12 00:09:27;;;;;;;5.97;2.42;;;;;;;17.49;100.00;95932.75;1030897;28;20033;-74
2023/07/12 00:09:57;;;;;;;3.47;2.50;;;;;;;17.60;100.00;95941.25;1035106;28;20037;-73
2023/07/12 00:10:30;;;;;;;4.88;2.30;;;;;;;17.50;100.00;95926.34;1039078;28;20029;-74
2023/07/12 00:11:01;;;;;;;5.55;2.33;;;;;;;17.57;100.00;95937.34;1034519;28;20026;-73
2023/07/12 00:11:34;;;;;;;5.43;2.45;;;;;;;17.58;100.00;95935.47;1036857;28;20605;-74
2023/07/12 00:12:05;;;;;;;4.70;2.17;;;;;;;17.55;100.00;95931.53;1039021;28;20632;-75
2023/07/12 00:12:35;;;;;;;5.00;2.38;;;;;;;17.54;100.00;95923.88;1040158;28;20029;-74
2023/07/12 00:13:06;;;;;;;7.72;2.13;;;;;;;17.58;100.00;95922.97;1043017;28;20037;-76
2023/07/12 00:13:36;;;;;;;5.32;2.15;;;;;;;17.60;100.00;95923.44;1043166;28;20517;-75
2023/07/12 00:14:07;;;;;;;4.68;2.30;;;;;;;17.59;100.00;95921.09;1039152;28;20025;-74
2023/07/12 00:14:37;;;;;;;3.00;1.70;;;;;;;17.59;100.00;95924.53;1043113;28;20028;-74
2023/07/12 00:15:14;;;;;;;3.97;2.42;;;;;;;17.62;100.00;95926.59;1034902;28;20021;-74
2023/07/12 00:15:46;;;;;;;4.22;2.28;;;;;;;17.56;100.00;95916.41;1027889;28;20023;-75
2023/07/12 00:16:27;;;;;;;5.07;2.38;;;;;;;17.56;100.00;95929.66;1030982;28;20114;-75
2023/07/12 00:16:58;;;;;;;5.13;2.33;;;;;;;17.55;100.00;95920.94;1039127;28;20431;-74
2023/07/12 00:17:31;;;;;;;3.50;2.45;;;;;;;17.62;100.00;95931.13;1034930;28;20029;-75
2023/07/12 00:18:02;;;;;;;3.30;2.05;;;;;;;17.56;100.00;95927.78;1038883;28;20034;-73
2023/07/12 00:18:32;;;;;;;4.85;2.50;;;;;;;17.63;100.00;95935.34;1034567;28;20040;-74
2023/07/12 00:19:04;;;;;;;4.50;2.20;;;;;;;17.64;100.00;95934.25;1039546;28;20029;-73
2023/07/12 00:19:34;;;;;;;5.95;2.15;;;;;;;17.62;100.00;95931.13;1039027;28;20534;-75
2023/07/12 00:20:20;;;;;;;5.82;2.88;;;;;;;17.64;100.00;95931.63;1039356;28;20025;-73
2023/07/12 00:20:51;;;;;;;5.07;2.95;;;;;;;17.61;100.00;95929.56;1043108;28;20069;-74
2023/07/12 00:21:23;;;;;;;6.90;2.78;;;;;;;17.61;100.00;95930.34;1046922;28;20045;-74
2023/07/12 00:21:53;;;;;;;7.57;2.20;;;;;;;17.63;100.00;95933.47;1047278;28;20094;-74
2023/07/12 00:22:24;;;;;;;3.85;2.47;;;;;;;17.63;100.00;95933.47;1047368;28;20486;-75
2023/07/12 00:22:57;;;;;;;5.82;2.03;;;;;;;17.61;100.00;95929.56;1051202;28;20035;-74
2023/07/12 00:23:28;;;;;;;2.65;2.00;;;;;;;17.63;100.00;95930.81;1047244;28;20024;-75
2023/07/12 00:23:59;;;;;;;4.20;2.10;;;;;;;17.61;100.00;95927.69;1047162;28;20031;-74
2023/07/12 00:24:30;;;;;;;3.50;2.47;;;;;;;17.62;100.00;95926.59;1039450;28;20017;-74
2023/07/12 00:25:00;;;;;;;5.53;2.22;;;;;;;17.62;100.00;95931.13;1034762;28;20115;-74
2023/07/12 00:25:32;;;;;;;4.88;2.08;;;;;;;17.60;100.00;95920.00;1030718;28;20061;-73
2023/07/12 00:26:10;;;;;;;5.10;2.75;;;;;;;17.66;100.00;95937.38;1035092;28;20116;-74
2023/07/12 00:26:41;;;;;;;6.97;2.50;;;;;;;17.64;100.00;95940.34;1036270;28;20036;-73
2023/07/12 00:27:11;;;;;;;3.65;2.60;;;;;;;17.64;100.00;95935.03;1037425;28;20088;-72
2023/07/12 00:27:42;;;;;;;2.92;2.33;;;;;;;17.63;100.00;95938.75;1040194;28;20025;-73
2023/07/12 00:28:25;;;;;;;2.70;2.30;;;;;;;17.49;100.00;95914.16;1042570;28;20813;-73
2023/07/12 00:28:57;;;;;;;4.55;2.30;;;;;;;17.60;100.00;95928.75;1040578;28;20048;-74
2023/07/12 00:29:27;;;;;;;4.32;1.95;;;;;;;17.61;100.00;95935.66;1038959;28;20026;-74
2023/07/12 00:29:58;;;;;;;6.35;2.53;;;;;;;17.60;100.00;95934.06;1034924;28;20037;-74
2023/07/12 00:30:33;;;;;;;4.03;2.22;;;;;;;17.58;100.00;95933.59;1038471;28;20040;-73
2023/07/12 00:31:04;;;;;;;5.50;2.58;;;;;;;17.61;100.00;95938.31;1030095;28;20022;-74
2023/07/12 00:31:35;;;;;;;7.60;2.40;;;;;;;17.57;100.00;95931.22;1034775;28;20812;-74
2023/07/12 00:32:05;;;;;;;3.70;2.20;;;;;;;17.63;100.00;95941.41;1038928;28;20071;-74
2023/07/12 00:32:36;;;;;;;5.15;2.40;;;;;;;17.65;100.00;95941.13;1042828;28;20029;-75
2023/07/12 00:33:10;;;;;;;6.05;2.15;;;;;;;17.66;100.00;95948.00;1039054;28;20025;-74
2023/07/12 00:33:41;;;;;;;3.55;2.25;;;;;;;17.65;100.00;95947.22;1042295;28;20013;-73
2023/07/12 00:34:14;;;;;;;3.95;2.17;;;;;;;17.64;100.00;95945.66;1038739;28;20029;-74
2023/07/12 00:34:44;;;;;;;2.83;2.33;;;;;;;17.56;100.00;95940.28;1038933;28;20048;-74
2023/07/12 00:35:17;;;;;;;6.78;2.30;;;;;;;17.52;100.00;95942.75;1038838;28;20036;-75
2023/07/12 00:35:48;;;;;;;4.53;2.70;;;;;;;17.57;100.00;95949.81;1026639;28;20011;-74
2023/07/12 00:36:21;;;;;;;5.72;2.22;;;;;;;17.59;100.00;95948.41;1034803;28;20413;-74
2023/07/12 00:36:52;;;;;;;5.00;2.63;;;;;;;17.55;100.00;95944.81;1034998;28;20018;-73
2023/07/12 00:37:22;;;;;;;7.70;2.60;;;;;;;17.57;100.00;95955.91;1033665;28;20022;-74
2023/07/12 00:37:56;;;;;;;5.43;2.92;;;;;;;17.60;100.00;95946.53;1035370;28;20014;-75
2023/07/12 00:38:27;;;;;;;4.75;2.47;;;;;;;17.58;100.00;95946.09;1027411;28;20026;-74
2023/07/12 00:39:06;;;;;;;6.80;2.50;;;;;;;17.58;100.00;95946.09;1031255;28;20396;-74
2023/07/12 00:39:37;;;;;;;10.48;2.90;;;;;;;17.65;100.00;95959.72;1030795;28;20030;-76
2023/07/12 00:40:37;;;;;;;4.38;2.20;;;;;;;17.61;100.00;95946.25;1031953;28;20069;-75
2023/07/12 00:41:07;;;;;;;5.00;2.50;;;;;;;17.65;100.00;95941.91;1017826;29;20027;-74
2023/07/12 00:41:58;;;;;;;4.03;2.60;;;;;;;17.64;100.00;95932.38;1026329;28;20042;-75
2023/07/12 00:42:32;;;;;;;11.23;2.78;;;;;;;17.60;100.00;95931.41;1038896;28;20026;-73
2023/07/12 00:43:14;;;;;;;3.90;2.42;;;;;;;17.58;100.00;95924.84;1033987;28;20018;-73
2023/07/12 00:43:48;;;;;;;3.30;2.47;;;;;;;17.54;100.00;95907.94;1030717;28;20496;-74
2023/07/12 00:44:42;;;;;;;4.93;3.47;;;;;;;17.52;100.00;95916.22;1033170;28;20057;-73
2023/07/12 00:45:13;;;;;;;4.82;2.42;;;;;;;17.51;100.00;95914.66;1035203;28;20107;-74
2023/07/12 00:45:44;;;;;;;5.82;2.30;;;;;;;17.47;100.00;95905.75;1030543;28;20014;-73
2023/07/12 00:46:37;;;;;;;4.53;2.40;;;;;;;17.52;100.00;95900.31;1030248;28;20018;-74
2023/07/12 00:47:08;;;;;;;4.20;2.38;;;;;;;17.44;100.00;95887.78;1029985;28;20582;-72
2023/07/12 00:47:38;;;;;;;4.75;2.47;;;;;;;17.49;100.00;95895.59;1033863;28;20080;-72
2023/07/12 00:48:12;;;;;;;5.45;2.67;;;;;;;17.51;100.00;95892.66;1038917;28;20025;-72
2023/07/12 00:48:45;;;;;;;5.57;2.72;;;;;;;17.50;100.00;95891.06;1025122;28;20676;-73
2023/07/12 00:49:15;;;;;;;8.73;2.65;;;;;;;17.51;100.00;95893.44;1031855;28;20023;-73
2023/07/12 00:49:46;;;;;;;5.05;2.50;;;;;;;17.52;100.00;95889.69;1035323;28;20033;-73
2023/07/12 00:50:20;;;;;;;4.28;2.70;;;;;;;17.53;100.00;95885.16;1039036;28;20113;-73
2023/07/12 00:50:51;;;;;;;4.55;2.28;;;;;;;17.52;100.00;95868.47;1035322;28;20013;-73
2023/07/12 00:51:26;;;;;;;6.85;2.33;;;;;;;17.52;100.00;95889.69;1029949;28;20512;-73
2023/07/12 00:52:13;;;;;;;8.30;2.40;;;;;;;17.58;100.00;95877.88;1034736;28;20022;-73
2023/07/12 00:52:45;;;;;;;4.95;2.58;;;;;;;17.60;100.00;95878.34;1034546;28;20050;-73
2023/07/12 00:53:20;;;;;;;3.33;2.28;;;;;;;17.58;100.00;95888.47;1037997;28;20017;-73
2023/07/12 00:53:50;;;;;;;3.25;1.85;;;;;;;17.61;100.00;95882.56;1034863;28;20018;-74
2023/07/12 00:54:23;;;;;;;32.22;5.45;;;;;;;17.64;100.00;95894.47;1031316;28;20084;-72
2023/07/12 00:54:58;;;;;;;4.50;2.35;;;;;;;17.65;100.00;95894.16;1031767;28;20528;-73
2023/07/12 00:55:57;;;;;;;3.30;2.30;;;;;;;17.68;100.00;95903.38;1027649;28;20026;-73
2023/07/12 00:56:30;;;;;;;4.10;2.33;;;;;;;17.68;100.00;95904.16;1031182;28;20057;-74
2023/07/12 00:57:01;;;;;;;7.50;2.78;;;;;;;17.71;100.00;95909.94;1035248;28;20037;-73
2023/07/12 00:57:32;;;;;;;5.25;2.40;;;;;;;17.64;100.00;95892.59;1043032;28;20025;-73
2023/07/12 00:58:02;;;;;;;4.13;2.28;;;;;;;17.67;100.00;95907.91;1030949;28;20014;-73
2023/07/12 00:58:44;;;;;;;3.30;2.17;;;;;;;17.65;100.00;95910.06;1034749;28;20033;-73
2023/07/12 00:59:26;;;;;;;5.13;2.42;;;;;;;17.62;100.00;95910.66;1030796;28;20026;-74
2023/07/12 01:00:05;;;;;;;4.57;2.45;;;;;;;17.66;100.00;95916.16;1037896;28;20471;-74
2023/07/12 01:00:35;;;;;;;5.03;2.30;;;;;;;17.65;100.00;95919.91;1031717;28;20100;-74
2023/07/12 01:01:06;;;;;;;4.85;2.45;;;;;;;17.60;100.00;95912.81;1034021;28;20476;-73
2023/07/12 01:01:36;;;;;;;5.80;2.30;;;;;;;17.58;100.00;95909.72;1032772;28;20097;-74
2023/07/12 01:02:07;;;;;;;5.25;2.17;;;;;;;17.54;100.00;95902.63;1031514;28;20027;-74
2023/07/12 01:02:41;;;;;;;5.05;2.60;;;;;;;17.55;100.00;95905.00;1026604;28;20436;-73
2023/07/12 01:03:12;;;;;;;4.40;2.38;;;;;;;17.59;100.00;95915.78;1034441;28;20052;-73
2023/07/12 01:03:43;;;;;;;4.95;2.40;;;;;;;17.53;100.00;95907.16;1030637;28;20069;-74
2023/07/12 01:04:16;;;;;;;3.08;2.20;;;;;;;17.53;100.00;95907.16;1030656;28;20097;-74
2023/07/12 01:04:47;;;;;;;7.20;3.40;;;;;;;17.57;100.00;95913.47;1031574;28;20022;-74
2023/07/12 01:05:18;;;;;;;6.82;3.10;;;;;;;17.54;100.00;95903.44;1030828;28;20030;-74
2023/07/12 01:05:48;;;;;;;5.05;3.00;;;;;;;17.57;100.00;95912.66;1030776;28;20122;-73
2023/07/12 01:06:22;;;;;;;4.88;2.80;;;;;;;17.59;100.00;95911.28;1030532;28;20124;-74
2023/07/12 01:06:52;;;;;;;5.80;2.78;;;;;;;17.54;100.00;95898.13;1035527;28;20041;-73
2023/07/12 01:07:23;;;;;;;7.22;3.33;;;;;;;17.53;100.00;95890.47;1030657;28;20129;-73
2023/07/12 01:07:53;;;;;;;5.57;2.58;;;;;;;17.53;100.00;95891.25;1031134;28;20109;-74
2023/07/12 01:08:24;;;;;;;5.43;2.90;;;;;;;17.51;100.00;95887.34;1034668;28;20025;-74
2023/07/12 01:08:55;;;;;;;4.65;2.40;;;;;;;17.51;100.00;95890.78;1034451;28;21116;-73
2023/07/12 01:09:28;;;;;;;4.50;2.88;;;;;;;17.51;100.00;95892.66;1034569;28;20128;-74
2023/07/12 01:09:58;;;;;;;4.18;2.60;;;;;;;17.47;100.00;95884.53;1042526;28;20052;-74
2023/07/12 01:10:29;;;;;;;5.70;2.88;;;;;;;17.51;100.00;95893.44;1030520;28;20473;-74
2023/07/12 01:11:01;;;;;;;5.53;2.83;;;;;;;17.51;100.00;95893.44;1034147;28;20026;-74
2023/07/12 01:11:31;;;;;;;6.28;3.47;;;;;;;17.50;100.00;95880.47;1034118;28;20072;-74
2023/07/12 01:12:03;;;;;;;4.82;2.47;;;;;;;17.52;100.00;95888.91;1030634;28;20104;-74
2023/07/12 01:12:34;;;;;;;4.63;2.60;;;;;;;17.51;100.00;95898.75;1030972;28;20122;-75
2023/07/12 01:13:05;;;;;;;4.30;2.40;;;;;;;17.50;100.00;95894.50;1037014;28;20036;-74
2023/07/12 01:13:36;;;;;;;7.22;3.03;;;;;;;17.44;100.00;95883.25;1034411;28;20026;-74
2023/07/12 01:14:14;;;;;;;5.88;2.58;;;;;;;17.49;100.00;95882.34;1038879;28;20483;-74
2023/07/12 01:14:44;;;;;;;8.18;3.22;;;;;;;17.50;100.00;95885.75;1034340;28;20022;-74
2023/07/12 01:15:15;;;;;;;4.30;2.50;;;;;;;17.49;100.00;95882.34;1030720;28;20030;-74
2023/07/12 01:15:45;;;;;;;6.82;2.88;;;;;;;17.50;100.00;95880.47;1032346;28;20541;-74
2023/07/12 01:16:17;;;;;;;5.28;2.78;;;;;;;17.50;100.00;95881.25;1035016;28;20018;-74
2023/07/12 01:16:53;;;;;;;3.67;2.53;;;;;;;17.48;100.00;95882.66;1037167;28;20022;-74
2023/07/12 01:17:24;;;;;;;6.35;2.80;;;;;;;17.43;100.00;95860.44;1042983;28;20033;-74
2023/07/12 01:17:54;;;;;;;3.35;2.25;;;;;;;17.37;100.00;95855.56;1039917;28;20025;-75
2023/07/12 01:18:25;;;;;;;4.38;2.63;;;;;;;17.44;100.00;95871.84;1035403;28;20034;-75
2023/07/12 01:18:55;;;;;;;5.13;2.65;;;;;;;17.49;100.00;95874.38;1033742;28;20109;-74
2023/07/12 01:19:26;;;;;;;5.70;3.10;;;;;;;17.51;100.00;95871.44;1034555;28;20030;-74
2023/07/12 01:19:57;;;;;;;5.03;2.55;;;;;;;17.49;100.00;95874.38;1034513;28;20033;-74
2023/07/12 01:20:28;;;;;;;5.15;2.40;;;;;;;17.44;100.00;95866.56;1034616;28;20064;-74
2023/07/12 01:21:19;;;;;;;3.15;2.28;;;;;;;17.47;100.00;95859.84;1034750;28;20041;-74
2023/07/12 01:21:51;;;;;;;5.40;2.65;;;;;;;17.46;100.00;95864.38;1048799;28;20505;-74
2023/07/12 01:22:21;;;;;;;4.35;2.60;;;;;;;17.43;100.00;95844.53;1046873;28;20429;-73
2023/07/12 01:22:52;;;;;;;7.35;2.80;;;;;;;17.44;100.00;95845.34;1042831;28;20029;-74
2023/07/12 01:23:23;;;;;;;3.67;2.47;;;;;;;17.47;100.00;95843.91;1034594;28;20033;-74
2023/07/12 01:23:53;;;;;;;4.55;2.50;;;;;;;17.44;100.00;95835.50;1034762;28;20026;-74
2023/07/12 01:24:25;;;;;;;3.55;2.22;;;;;;;17.47;100.00;95841.25;1034907;28;20532;-75
2023/07/12 01:24:56;;;;;;;4.80;2.45;;;;;;;17.49;100.00;95837.22;1035262;28;20121;-75
2023/07/12 01:25:45;;;;;;;4.70;2.13;;;;;;;17.46;100.00;95832.53;1038019;28;20045;-74
2023/07/12 01:26:18;;;;;;;3.45;2.15;;;;;;;17.47;100.00;95828.00;1037614;28;20017;-73
2023/07/12 01:26:50;;;;;;;6.57;2.47;;;;;;;17.43;100.00;95812.69;1044857;28;20028;-75
2023/07/12 01:27:24;;;;;;;3.50;2.30;;;;;;;17.42;100.00;95800.53;1040319;28;20113;-72
2023/07/12 01:27:54;;;;;;;3.10;2.30;;;;;;;17.48;100.00;95798.53;1035758;28;20454;-74
2023/07/12 01:28:25;;;;;;;5.72;2.45;;;;;;;17.44;100.00;95785.09;1034665;28;20034;-74
2023/07/12 01:28:57;;;;;;;5.32;2.80;;;;;;;17.42;100.00;95773.22;1035497;28;20542;-74
2023/07/12 01:29:27;;;;;;;4.78;2.50;;;;;;;17.47;100.00;95773.09;1030413;28;20026;-74
2023/07/12 01:29:58;;;;;;;4.55;2.20;;;;;;;17.47;100.00;95775.75;1038133;28;20060;-74
2023/07/12 01:30:28;;;;;;;3.33;2.13;;;;;;;17.51;100.00;95762.66;1029875;28;20046;-75
2023/07/12 01:30:59;;;;;;;4.90;2.20;;;;;;;17.51;100.00;95760.00;1026348;28;20523;-72
2023/07/12 01:31:30;;;;;;;4.88;2.45;;;;;;;17.51;100.00;95749.38;1026336;28;20031;-74
2023/07/12 01:32:00;;;;;;;6.15;2.40;;;;;;;17.51;100.00;95749.38;1026925;28;20023;-73
2023/07/12 01:32:31;;;;;;;3.28;2.45;;;;;;;17.50;100.00;95753.88;1034008;28;20026;-74
2023/07/12 01:33:04;;;;;;;5.90;2.42;;;;;;;17.55;100.00;95742.38;1032181;28;20030;-74
2023/07/12 01:33:37;;;;;;;4.10;2.30;;;;;;;17.53;100.00;95745.31;1035099;28;20100;-74
2023/07/12 01:34:08;;;;;;;6.65;2.85;;;;;;;17.43;100.00;95733.09;1036086;28;20025;-74
2023/07/12 01:34:38;;;;;;;4.43;2.70;;;;;;;17.58;100.00;95749.72;1033383;28;20623;-74
2023/07/12 01:35:09;;;;;;;10.77;3.47;;;;;;;17.59;100.00;95752.06;1043547;28;20057;-72
2023/07/12 01:35:42;;;;;;;5.63;2.45;;;;;;;17.61;100.00;95760.50;1045174;28;20070;-73
2023/07/12 01:36:15;;;;;;;7.15;3.70;;;;;;;17.61;100.00;95755.19;1035478;28;20037;-74
2023/07/12 01:36:46;;;;;;;5.13;2.70;;;;;;;17.60;100.00;95753.63;1030555;28;20058;-74
2023/07/12 01:37:16;;;;;;;3.45;2.70;;;;;;;17.62;100.00;95758.63;1027309;28;20066;-73
2023/07/12 01:37:47;;;;;;;3.35;2.42;;;;;;;17.64;100.00;95764.44;1026678;28;20033;-74
2023/07/12 01:38:17;;;;;;;4.70;2.85;;;;;;;17.63;100.00;95758.31;1031092;28;20580;-74
2023/07/12 01:38:49;;;;;;;4.43;2.45;;;;;;;17.63;100.00;95752.22;1042810;28;20040;-73
2023/07/12 01:39:22;;;;;;;5.50;2.20;;;;;;;17.66;100.00;95755.03;1037774;28;20030;-75
2023/07/12 01:39:53;;;;;;;5.20;2.58;;;;;;;17.63;100.00;95758.31;1039063;28;20095;-75
2023/07/12 01:40:24;;;;;;;4.40;2.35;;;;;;;17.65;100.00;95756.13;1038630;28;20029;-75
2023/07/12 01:40:54;;;;;;;5.93;2.45;;;;;;;17.65;100.00;95750.84;1034960;28;20034;-74
2023/07/12 01:41:25;;;;;;;6.70;2.90;;;;;;;17.61;100.00;95749.88;1037908;28;20097;-75
2023/07/12 01:41:55;;;;;;;3.53;2.35;;;;;;;17.65;100.00;95756.13;1034714;28;20093;-75
2023/07/12 01:42:26;;;;;;;5.03;2.28;;;;;;;17.64;100.00;95759.91;1039445;28;20025;-75
2023/07/12 01:42:56;;;;;;;6.43;2.63;;;;;;;17.65;100.00;95752.72;1038825;28;20033;-74
2023/07/12 01:43:27;;;;;;;6.88;2.60;;;;;;;17.61;100.00;95749.88;1038571;28;20423;-74
2023/07/12 01:43:57;;;;;;;6.57;2.22;;;;;;;17.61;100.00;95752.53;1038669;28;20069;-74
2023/07/12 01:44:28;;;;;;;4.00;2.30;;;;;;;17.63;100.00;95747.69;1034605;28;20423;-75
2023/07/12 01:44:58;;;;;;;3.88;2.28;;;;;;;17.63;100.00;95741.59;1034827;28;20518;-73
2023/07/12 01:45:29;;;;;;;4.82;2.45;;;;;;;17.61;100.00;95739.28;1034618;28;20026;-72
2023/07/12 01:45:59;;;;;;;6.57;2.80;;;;;;;17.58;100.00;95731.94;1036796;28;20085;-75
2023/07/12 01:46:30;;;;;;;2.55;2.20;;;;;;;17.62;100.00;95737.41;1038707;28;20060;-75
2023/07/12 01:47:00;;;;;;;2.83;2.22;;;;;;;17.60;100.00;95731.59;1030630;28;20077;-75
2023/07/12 01:47:32;;;;;;;3.03;2.40;;;;;;;17.57;100.00;95730.38;1034541;28;20053;-74
2023/07/12 01:48:03;;;;;;;3.72;2.60;;;;;;;17.62;100.00;95735.53;1030683;28;20080;-75
2023/07/12 01:48:33;;;;;;;6.88;2.50;;;;;;;17.59;100.00;95728.19;1033211;28;20124;-75
2023/07/12 01:49:04;;;;;;;6.00;2.60;;;;;;;17.62;100.00;95732.09;1034516;28;20407;-75
2023/07/12 01:49:34;;;;;;;4.75;2.47;;;;;;;17.58;100.00;95728.50;1038190;28;20033;-74
2023/07/12 01:50:05;;;;;;;4.70;2.60;;;;;;;17.59;100.00;95727.41;1038595;28;20585;-74
2023/07/12 01:50:35;;;;;;;6.32;3.28;;;;;;;17.54;100.00;95719.56;1043012;28;20025;-75
2023/07/12 01:51:06;;;;;;;3.03;2.33;;;;;;;17.60;100.00;95731.59;1040372;28;20029;-74
2023/07/12 01:51:37;;;;;;;3.25;2.65;;;;;;;17.59;100.00;95733.47;1038548;28;20033;-75
2023/07/12 01:52:08;;;;;;;5.55;3.17;;;;;;;17.57;100.00;95726.91;1038590;28;20022;-73
2023/07/12 01:52:38;;;;;;;7.47;3.00;;;;;;;17.58;100.00;95734.59;1034900;28;20732;-74
2023/07/12 01:53:09;;;;;;;3.50;2.47;;;;;;;17.56;100.00;95736.75;1038829;28;20029;-75
2023/07/12 01:53:40;;;;;;;6.47;2.60;;;;;;;17.53;100.00;95726.75;1038712;28;20037;-74
2023/07/12 01:54:11;;;;;;;5.43;2.30;;;;;;;17.58;100.00;95737.22;1038918;28;20025;-74
2023/07/12 01:54:41;;;;;;;5.57;2.45;;;;;;;17.55;100.00;95737.84;1038249;28;20395;-75
2023/07/12 01:55:12;;;;;;;6.10;2.80;;;;;;;17.58;100.00;95742.53;1034757;28;20037;-75
2023/07/12 01:55:42;;;;;;;4.38;2.50;;;;;;;17.52;100.00;95735.81;1034639;28;20129;-75
2023/07/12 01:56:13;;;;;;;7.40;2.83;;;;;;;17.53;100.00;95734.72;1034484;28;20160;-74
2023/07/12 01:56:44;;;;;;;5.32;2.67;;;;;;;17.55;100.00;95745.81;1026496;28;20117;-74
2023/07/12 01:57:15;;;;;;;4.75;2.55;;;;;;;17.54;100.00;95738.13;1026780;28;20034;-76
2023/07/12 01:57:48;;;;;;;5.00;2.65;;;;;;;17.55;100.00;95743.16;1030414;28;20030;-75
2023/07/12 01:58:19;;;;;;;4.68;2.67;;;;;;;17.52;100.00;95740.31;1030646;28;20034;-74
2023/07/12 01:58:49;;;;;;;4.63;2.80;;;;;;;17.53;100.00;95747.97;1034391;28;20578;-76
2023/07/12 01:59:20;;;;;;;4.43;2.50;;;;;;;17.52;100.00;95746.41;1031853;28;20030;-74
2023/07/12 01:59:50;;;;;;;5.20;2.85;;;;;;;17.53;100.00;95747.97;1038638;28;20060;-74
2023/07/12 02:00:21;;;;;;;3.63;2.70;;;;;;;17.52;100.00;95751.72;1038822;28;20021;-73
2023/07/12 02:00:51;;;;;;;7.95;3.20;;;;;;;17.51;100.00;95742.22;1038743;28;20374;-75
2023/07/12 02:01:22;;;;;;;4.35;2.42;;;;;;;17.52;100.00;95754.38;1035013;28;20025;-75
2023/07/12 02:01:54;;;;;;;6.57;2.67;;;;;;;17.51;100.00;95747.50;1034694;28;20439;-76
2023/07/12 02:02:28;;;;;;;5.25;2.60;;;;;;;17.52;100.00;95746.41;1034816;28;20030;-74
2023/07/12 02:02:58;;;;;;;5.75;2.53;;;;;;;17.53;100.00;95741.88;1037267;28;20037;-75
2023/07/12 02:03:29;;;;;;;5.45;2.40;;;;;;;17.47;100.00;95728.00;1037923;28;20025;-75
2023/07/12 02:03:59;;;;;;;6.25;2.67;;;;;;;17.46;100.00;95721.09;1030570;28;20110;-74
2023/07/12 02:04:29;;;;;;;4.68;2.40;;;;;;;17.54;100.00;95730.97;1035091;28;20041;-74
2023/07/12 02:05:00;;;;;;;6.18;2.90;;;;;;;17.52;100.00;95709.28;1040359;28;20037;-74
2023/07/12 02:05:31;;;;;;;4.18;2.75;;;;;;;17.55;100.00;95707.88;1038761;28;20021;-75
2023/07/12 02:06:01;;;;;;;5.97;2.60;;;;;;;17.56;100.00;95704.13;1042933;28;20033;-74
2023/07/12 02:06:32;;;;;;;10.82;3.17;;;;;;;17.54;100.00;95701.78;1046057;28;20025;-75
2023/07/12 02:07:05;;;;;;;4.78;2.50;;;;;;;17.57;100.00;95697.72;1042696;28;20029;-75
2023/07/12 02:07:39;;;;;;;6.13;2.60;;;;;;;17.56;100.00;95694.28;1042726;28;20025;-75
2023/07/12 02:08:12;;;;;;;5.07;2.67;;;;;;;17.53;100.00;95689.59;1035267;28;20646;-74
2023/07/12 02:08:42;;;;;;;4.47;2.55;;;;;;;17.55;100.00;95691.97;1038564;28;20022;-76
2023/07/12 02:09:13;;;;;;;6.72;3.40;;;;;;;17.60;100.00;95684.63;1030530;28;20014;-75
2023/07/12 02:10:06;;;;;;;5.93;3.08;;;;;;;17.60;100.00;95681.97;1033465;28;20022;-75
2023/07/12 02:10:36;;;;;;;9.57;2.72;;;;;;;17.59;100.00;95671.69;1037969;28;20522;-75
2023/07/12 02:11:07;;;;;;;4.93;3.08;;;;;;;17.57;100.00;95664.03;1037863;28;20020;-75
2023/07/12 02:11:37;;;;;;;7.57;3.00;;;;;;;17.58;100.00;95670.13;1040576;28;20017;-75
2023/07/12 02:12:11;;;;;;;7.20;2.72;;;;;;;17.59;100.00;95651.22;1041220;28;20471;-75
2023/07/12 02:12:41;;;;;;;7.40;2.85;;;;;;;17.55;100.00;95644.97;1042494;28;20029;-74
2023/07/12 02:13:12;;;;;;;4.13;2.40;;;;;;;17.58;100.00;95644.38;1038818;28;20685;-74
2023/07/12 02:13:42;;;;;;;4.80;2.67;;;;;;;17.62;100.00;95661.22;1038937;28;20017;-75
2023/07/12 02:14:13;;;;;;;4.63;3.08;;;;;;;17.60;100.00;95652.00;1042592;28;20021;-75
2023/07/12 02:14:43;;;;;;;7.63;2.83;;;;;;;17.60;100.00;95666.03;1040239;28;20021;-75
2023/07/12 02:15:14;;;;;;;6.35;2.80;;;;;;;17.54;100.00;95659.34;1038364;28;20457;-75
2023/07/12 02:15:44;;;;;;;6.18;2.88;;;;;;;17.61;100.00;95675.59;1038237;28;20025;-75
2023/07/12 02:16:15;;;;;;;5.43;2.97;;;;;;;17.65;100.00;95681.84;1046855;28;20033;-75
2023/07/12 02:16:45;;;;;;;4.72;3.38;;;;;;;17.67;100.00;95690.28;1040954;28;20046;-74
2023/07/12 02:17:16;;;;;;;7.38;3.42;;;;;;;17.68;100.00;95691.06;1038629;28;20065;-74
2023/07/12 02:17:46;;;;;;;8.75;3.35;;;;;;;17.64;100.00;95677.63;1038617;28;20025;-76
2023/07/12 02:18:17;;;;;;;4.15;2.92;;;;;;;17.65;100.00;95679.19;1036428;28;20028;-75
2023/07/12 02:18:47;;;;;;;5.57;3.33;;;;;;;17.64;100.00;95674.97;1036706;28;20029;-75
2023/07/12 02:19:18;;;;;;;4.03;2.67;;;;;;;17.65;100.00;95671.22;1042732;28;20021;-74
2023/07/12 02:19:48;;;;;;;5.22;3.10;;;;;;;17.66;100.00;95667.47;1046777;28;20517;-76
2023/07/12 02:20:21;;;;;;;5.10;2.80;;;;;;;17.67;100.00;95684.16;1050902;28;20016;-74
2023/07/12 02:20:52;;;;;;;7.82;3.08;;;;;;;17.69;100.00;95692.63;1055536;28;20515;-74
2023/07/12 02:21:23;;;;;;;4.72;2.78;;;;;;;17.71;100.00;95694.97;1045964;28;20029;-75
2023/07/12 02:21:53;;;;;;;7.68;3.00;;;;;;;17.71;100.00;95702.94;1042702;28;20065;-73
2023/07/12 02:22:23;;;;;;;4.93;3.00;;;;;;;17.70;100.00;95699.47;1042636;28;20032;-74
2023/07/12 02:22:54;;;;;;;5.00;3.08;;;;;;;17.73;100.00;95700.75;1043393;28;20029;-74
2023/07/12 02:23:25;;;;;;;5.55;3.13;;;;;;;17.74;100.00;95703.09;1036841;28;20032;-75
2023/07/12 02:23:55;;;;;;;6.82;2.75;;;;;;;17.68;100.00;95689.19;1030582;28;20377;-75
2023/07/12 02:24:25;;;;;;;6.28;2.92;;;;;;;17.71;100.00;95695.75;1035113;28;20026;-75
2023/07/12 02:24:56;;;;;;;7.28;3.17;;;;;;;17.75;100.00;95690.59;1030834;28;20034;-75
2023/07/12 02:25:27;;;;;;;6.90;3.22;;;;;;;17.72;100.00;95692.00;1034246;28;20022;-74
2023/07/12 02:25:57;;;;;;;8.52;3.83;;;;;;;17.74;100.00;95689.84;1034877;28;20038;-74
2023/07/12 02:26:30;;;;;;;5.47;3.30;;;;;;;17.71;100.00;95687.00;1042880;28;20028;-74
2023/07/12 02:27:01;;;;;;;5.00;2.63;;;;;;;17.70;100.00;95688.09;1039486;28;20534;-74
2023/07/12 02:27:31;;;;;;;4.95;2.90;;;;;;;17.71;100.00;95684.38;1043739;28;20096;-75
2023/07/12 02:28:02;;;;;;;6.60;2.75;;;;;;;17.64;100.00;95674.97;1047305;28;20410;-73
2023/07/12 02:28:32;;;;;;;6.22;2.63;;;;;;;17.67;100.00;95669.06;1043472;28;20576;-76
2023/07/12 02:29:03;;;;;;;3.35;2.70;;;;;;;17.68;100.00;95665.31;1038937;28;20041;-74
2023/07/12 02:29:33;;;;;;;5.10;3.25;;;;;;;17.70;100.00;95669.50;1035224;28;20029;-75
2023/07/12 02:30:11;;;;;;;4.43;2.67;;;;;;;17.68;100.00;95665.31;1039129;28;20115;-75